sensor_id;sensor_type;location;lat;lon;timestamp;pressure;altitude;pressure_sealevel;temperature
61390;BMP280;47260;48.274;19.814;2023-05-02T16:26:46;99506.50;;;22.48
61390;BMP280;47260;48.274;19.814;2023-05-02T16:28:18;99505.00;;;22.27
61390;BMP280;47260;48.274;19.814;2023-05-02T16:29:49;99504.25;;;22.17
61390;BMP280;47260;48.274;19.814;2023-05-02T16:31:21;99501.44;;;21.98
61390;BMP280;47260;48.274;19.814;2023-05-02T16:32:52;99507.34;;;21.95
61390;BMP280;47260;48.274;19.814;2023-05-02T16:34:24;99507.59;;;21.89
61390;BMP280;47260;48.274;19.814;2023-05-02T16:35:59;99506.69;;;21.77
61390;BMP280;47260;48.274;19.814;2023-05-02T16:37:32;99508.06;;;21.69
61390;BMP280;47260;48.274;19.814;2023-05-02T16:39:03;99508.44;;;21.56
61390;BMP280;47260;48.274;19.814;2023-05-02T16:40:35;99507.25;;;21.49
61390;BMP280;47260;48.274;19.814;2023-05-02T16:42:08;99501.88;;;21.42
61390;BMP280;47260;48.274;19.814;2023-05-02T16:43:40;99509.75;;;21.38
61390;BMP280;47260;48.274;19.814;2023-05-02T16:45:15;99501.06;;;21.32
61390;BMP280;47260;48.274;19.814;2023-05-02T16:46:46;99498.94;;;21.30
61390;BMP280;47260;48.274;19.814;2023-05-02T16:48:18;99500.88;;;21.20
61390;BMP280;47260;48.274;19.814;2023-05-02T16:49:52;99498.72;;;21.19
61390;BMP280;47260;48.274;19.814;2023-05-02T16:51:24;99498.22;;;21.13
61390;BMP280;47260;48.274;19.814;2023-05-02T16:52:55;99496.84;;;21.04
61390;BMP280;47260;48.274;19.814;2023-05-02T16:54:27;99505.84;;;20.97
61390;BMP280;47260;48.274;19.814;2023-05-02T16:55:58;99498.47;;;20.90
61390;BMP280;47260;48.274;19.814;2023-05-02T16:57:31;99494.16;;;20.87
61390;BMP280;47260;48.274;19.814;2023-05-02T16:59:03;99497.28;;;20.84
61390;BMP280;47260;48.274;19.814;2023-05-02T17:00:34;99499.28;;;20.83
61390;BMP280;47260;48.274;19.814;2023-05-02T17:02:06;99499.66;;;20.80
61390;BMP280;47260;48.274;19.814;2023-05-02T17:03:38;99497.19;;;20.74
61390;BMP280;47260;48.274;19.814;2023-05-02T17:05:09;99501.06;;;20.71
61390;BMP280;47260;48.274;19.814;2023-05-02T17:06:41;99496.69;;;20.68
61390;BMP280;47260;48.274;19.814;2023-05-02T17:08:12;99500.22;;;20.61
61390;BMP280;47260;48.274;19.814;2023-05-02T17:09:45;99490.25;;;20.56
61390;BMP280;47260;48.274;19.814;2023-05-02T17:11:17;99499.50;;;20.61
61390;BMP280;47260;48.274;19.814;2023-05-02T17:12:51;99499.72;;;20.55
61390;BMP280;47260;48.274;19.814;2023-05-02T17:14:25;99494.50;;;20.49
61390;BMP280;47260;48.274;19.814;2023-05-02T17:15:56;99494.00;;;20.43
61390;BMP280;47260;48.274;19.814;2023-05-02T17:17:28;99498.59;;;20.41
61390;BMP280;47260;48.274;19.814;2023-05-02T17:19:00;99498.25;;;20.37
61390;BMP280;47260;48.274;19.814;2023-05-02T17:20:31;99496.66;;;20.34
61390;BMP280;47260;48.274;19.814;2023-05-02T17:22:03;99497.75;;;20.31
61390;BMP280;47260;48.274;19.814;2023-05-02T17:23:35;99504.88;;;20.26
61390;BMP280;47260;48.274;19.814;2023-05-02T17:25:07;99497.25;;;20.25
61390;BMP280;47260;48.274;19.814;2023-05-02T17:26:39;99497.66;;;20.21
61390;BMP280;47260;48.274;19.814;2023-05-02T17:28:12;99504.06;;;20.16
61390;BMP280;47260;48.274;19.814;2023-05-02T17:29:44;99495.34;;;20.10
61390;BMP280;47260;48.274;19.814;2023-05-02T17:31:15;99506.31;;;20.03
61390;BMP280;47260;48.274;19.814;2023-05-02T17:32:47;99504.84;;;20.02
61390;BMP280;47260;48.274;19.814;2023-05-02T17:34:18;99508.50;;;19.97
61390;BMP280;47260;48.274;19.814;2023-05-02T17:35:54;99510.75;;;19.91
61390;BMP280;47260;48.274;19.814;2023-05-02T17:37:26;99518.44;;;19.77
61390;BMP280;47260;48.274;19.814;2023-05-02T17:38:58;99509.94;;;19.73
61390;BMP280;47260;48.274;19.814;2023-05-02T17:40:29;99513.78;;;19.63
61390;BMP280;47260;48.274;19.814;2023-05-02T17:42:01;99510.00;;;19.58
61390;BMP280;47260;48.274;19.814;2023-05-02T17:43:33;99521.63;;;19.59
61390;BMP280;47260;48.274;19.814;2023-05-02T17:45:07;99520.34;;;19.60
61390;BMP280;47260;48.274;19.814;2023-05-02T17:46:39;99520.38;;;19.52
61390;BMP280;47260;48.274;19.814;2023-05-02T17:48:11;99518.78;;;19.49
61390;BMP280;47260;48.274;19.814;2023-05-02T17:49:42;99525.66;;;19.50
61390;BMP280;47260;48.274;19.814;2023-05-02T17:51:14;99512.44;;;19.47
61390;BMP280;47260;48.274;19.814;2023-05-02T17:52:46;99517.50;;;19.43
61390;BMP280;47260;48.274;19.814;2023-05-02T17:54:17;99517.94;;;19.32
61390;BMP280;47260;48.274;19.814;2023-05-02T17:55:49;99518.69;;;19.17
61390;BMP280;47260;48.274;19.814;2023-05-02T17:57:20;99512.56;;;19.09
61390;BMP280;47260;48.274;19.814;2023-05-02T17:58:53;99508.72;;;19.05
61390;BMP280;47260;48.274;19.814;2023-05-02T18:00:25;99520.72;;;19.02
61390;BMP280;47260;48.274;19.814;2023-05-02T18:01:57;99516.38;;;18.98
61390;BMP280;47260;48.274;19.814;2023-05-02T18:03:28;99514.41;;;18.91
61390;BMP280;47260;48.274;19.814;2023-05-02T18:05:00;99512.03;;;18.88
61390;BMP280;47260;48.274;19.814;2023-05-02T18:06:32;99525.28;;;18.84
61390;BMP280;47260;48.274;19.814;2023-05-02T18:08:04;99518.94;;;18.81
61390;BMP280;47260;48.274;19.814;2023-05-02T18:09:36;99527.84;;;18.82
61390;BMP280;47260;48.274;19.814;2023-05-02T18:11:12;99529.81;;;18.81
61390;BMP280;47260;48.274;19.814;2023-05-02T18:12:43;99529.63;;;18.79
61390;BMP280;47260;48.274;19.814;2023-05-02T18:14:16;99532.16;;;18.77
61390;BMP280;47260;48.274;19.814;2023-05-02T18:15:53;99530.53;;;18.74
61390;BMP280;47260;48.274;19.814;2023-05-02T18:17:25;99526.53;;;18.75
61390;BMP280;47260;48.274;19.814;2023-05-02T18:18:57;99524.91;;;18.72
61390;BMP280;47260;48.274;19.814;2023-05-02T18:20:28;99534.72;;;18.68
61390;BMP280;47260;48.274;19.814;2023-05-02T18:22:00;99535.81;;;18.65
61390;BMP280;47260;48.274;19.814;2023-05-02T18:23:31;99530.91;;;18.63
61390;BMP280;47260;48.274;19.814;2023-05-02T18:25:03;99529.28;;;18.60
61390;BMP280;47260;48.274;19.814;2023-05-02T18:26:35;99535.78;;;18.57
61390;BMP280;47260;48.274;19.814;2023-05-02T18:28:06;99541.41;;;18.52
61390;BMP280;47260;48.274;19.814;2023-05-02T18:29:39;99549.94;;;18.48
61390;BMP280;47260;48.274;19.814;2023-05-02T18:31:14;99542.13;;;18.45
61390;BMP280;47260;48.274;19.814;2023-05-02T18:32:45;99549.00;;;18.38
61390;BMP280;47260;48.274;19.814;2023-05-02T18:34:17;99542.47;;;18.34
61390;BMP280;47260;48.274;19.814;2023-05-02T18:35:49;99550.44;;;18.24
61390;BMP280;47260;48.274;19.814;2023-05-02T18:37:20;99546.78;;;18.07
61390;BMP280;47260;48.274;19.814;2023-05-02T18:39:00;99552.94;;;18.00
61390;BMP280;47260;48.274;19.814;2023-05-02T18:40:31;99552.72;;;17.98
61390;BMP280;47260;48.274;19.814;2023-05-02T18:42:03;99551.47;;;17.99
61390;BMP280;47260;48.274;19.814;2023-05-02T18:43:35;99557.44;;;17.97
61390;BMP280;47260;48.274;19.814;2023-05-02T18:45:08;99547.63;;;17.87
61390;BMP280;47260;48.274;19.814;2023-05-02T18:46:40;99553.41;;;17.83
61390;BMP280;47260;48.274;19.814;2023-05-02T18:48:11;99550.50;;;17.81
61390;BMP280;47260;48.274;19.814;2023-05-02T18:49:43;99547.94;;;17.76
61390;BMP280;47260;48.274;19.814;2023-05-02T18:51:15;99551.19;;;17.74
61390;BMP280;47260;48.274;19.814;2023-05-02T18:52:46;99560.59;;;17.73
61390;BMP280;47260;48.274;19.814;2023-05-02T18:54:18;99554.66;;;17.75
61390;BMP280;47260;48.274;19.814;2023-05-02T18:55:49;99562.41;;;17.78
61390;BMP280;47260;48.274;19.814;2023-05-02T18:57:21;99560.63;;;17.81
61390;BMP280;47260;48.274;19.814;2023-05-02T18:58:52;99564.78;;;17.82
61390;BMP280;47260;48.274;19.814;2023-05-02T19:00:28;99558.66;;;17.81
61390;BMP280;47260;48.274;19.814;2023-05-02T19:02:00;99555.56;;;17.77
61390;BMP280;47260;48.274;19.814;2023-05-02T19:03:32;99555.00;;;17.79
61390;BMP280;47260;48.274;19.814;2023-05-02T19:05:04;99561.19;;;17.79
61390;BMP280;47260;48.274;19.814;2023-05-02T19:06:35;99562.41;;;17.78
61390;BMP280;47260;48.274;19.814;2023-05-02T19:08:07;99555.75;;;17.79
61390;BMP280;47260;48.274;19.814;2023-05-02T19:09:38;99553.03;;;17.79
61390;BMP280;47260;48.274;19.814;2023-05-02T19:11:10;99555.91;;;17.74
61390;BMP280;47260;48.274;19.814;2023-05-02T19:12:41;99560.41;;;17.71
61390;BMP280;47260;48.274;19.814;2023-05-02T19:14:13;99549.56;;;17.71
61390;BMP280;47260;48.274;19.814;2023-05-02T19:15:46;99560.59;;;17.73
61390;BMP280;47260;48.274;19.814;2023-05-02T19:17:17;99554.09;;;17.76
61390;BMP280;47260;48.274;19.814;2023-05-02T19:18:51;99561.19;;;17.79
61390;BMP280;47260;48.274;19.814;2023-05-02T19:20:25;99564.03;;;17.74
61390;BMP280;47260;48.274;19.814;2023-05-02T19:21:57;99560.41;;;17.71
61390;BMP280;47260;48.274;19.814;2023-05-02T19:23:29;99559.84;;;17.73
61390;BMP280;47260;48.274;19.814;2023-05-02T19:25:00;99568.19;;;17.67
61390;BMP280;47260;48.274;19.814;2023-05-02T19:26:32;99564.69;;;17.59
61390;BMP280;47260;48.274;19.814;2023-05-02T19:28:04;99566.81;;;17.53
61390;BMP280;47260;48.274;19.814;2023-05-02T19:29:35;99570.25;;;17.46
61390;BMP280;47260;48.274;19.814;2023-05-02T19:31:09;99568.59;;;17.43
61390;BMP280;47260;48.274;19.814;2023-05-02T19:32:40;99572.22;;;17.45
61390;BMP280;47260;48.274;19.814;2023-05-02T19:34:12;99565.69;;;17.41
61390;BMP280;47260;48.274;19.814;2023-05-02T19:35:43;99570.38;;;17.40
61390;BMP280;47260;48.274;19.814;2023-05-02T19:37:16;99570.75;;;17.37
61390;BMP280;47260;48.274;19.814;2023-05-02T19:38:48;99568.34;;;17.33
61390;BMP280;47260;48.274;19.814;2023-05-02T19:40:21;99565.25;;;17.29
61390;BMP280;47260;48.274;19.814;2023-05-02T19:41:52;99575.53;;;17.23
61390;BMP280;47260;48.274;19.814;2023-05-02T19:43:24;99571.69;;;17.19
61390;BMP280;47260;48.274;19.814;2023-05-02T19:44:55;99573.47;;;17.16
61390;BMP280;47260;48.274;19.814;2023-05-02T19:46:28;99573.13;;;17.20
61390;BMP280;47260;48.274;19.814;2023-05-02T19:48:00;99573.13;;;17.20
61390;BMP280;47260;48.274;19.814;2023-05-02T19:49:31;99578.19;;;17.16
61390;BMP280;47260;48.274;19.814;2023-05-02T19:51:03;99581.25;;;17.20
61390;BMP280;47260;48.274;19.814;2023-05-02T19:52:34;99580.88;;;17.16
61390;BMP280;47260;48.274;19.814;2023-05-02T19:54:08;99577.97;;;17.14
61390;BMP280;47260;48.274;19.814;2023-05-02T19:55:39;99582.16;;;17.15
61390;BMP280;47260;48.274;19.814;2023-05-02T19:57:11;99579.66;;;17.17
61390;BMP280;47260;48.274;19.814;2023-05-02T19:58:42;99581.63;;;17.16
61390;BMP280;47260;48.274;19.814;2023-05-02T20:00:14;99582.16;;;17.15
61390;BMP280;47260;48.274;19.814;2023-05-02T20:01:49;99581.41;;;17.14
61390;BMP280;47260;48.274;19.814;2023-05-02T20:03:20;99583.59;;;17.16
61390;BMP280;47260;48.274;19.814;2023-05-02T20:04:52;99583.59;;;17.16
61390;BMP280;47260;48.274;19.814;2023-05-02T20:06:24;99584.88;;;17.15
61390;BMP280;47260;48.274;19.814;2023-05-02T20:07:57;99584.47;;;17.11
61390;BMP280;47260;48.274;19.814;2023-05-02T20:09:29;99588.66;;;17.12
61390;BMP280;47260;48.274;19.814;2023-05-02T20:11:00;99593.00;;;17.15
61390;BMP280;47260;48.274;19.814;2023-05-02T20:12:32;99593.47;;;17.06
61390;BMP280;47260;48.274;19.814;2023-05-02T20:14:03;99596.91;;;17.06
61390;BMP280;47260;48.274;19.814;2023-05-02T20:15:35;99590.25;;;17.07
61390;BMP280;47260;48.274;19.814;2023-05-02T20:17:08;99589.53;;;17.07
61390;BMP280;47260;48.274;19.814;2023-05-02T20:18:40;99588.91;;;17.01
61390;BMP280;47260;48.274;19.814;2023-05-02T20:20:11;99580.72;;;16.93
61390;BMP280;47260;48.274;19.814;2023-05-02T20:21:43;99582.91;;;16.95
61390;BMP280;47260;48.274;19.814;2023-05-02T20:23:14;99594.81;;;16.92
61390;BMP280;47260;48.274;19.814;2023-05-02T20:24:46;99595.16;;;16.88
61390;BMP280;47260;48.274;19.814;2023-05-02T20:26:17;99594.19;;;16.86
61390;BMP280;47260;48.274;19.814;2023-05-02T20:27:50;99606.53;;;16.87
61390;BMP280;47260;48.274;19.814;2023-05-02T20:29:22;99606.91;;;16.91
61390;BMP280;47260;48.274;19.814;2023-05-02T20:30:53;99610.69;;;16.88
61390;BMP280;47260;48.274;19.814;2023-05-02T20:32:26;99615.91;;;16.86
61390;BMP280;47260;48.274;19.814;2023-05-02T20:33:58;99621.78;;;16.77
61390;BMP280;47260;48.274;19.814;2023-05-02T20:35:30;99639.09;;;16.74
61390;BMP280;47260;48.274;19.814;2023-05-02T20:37:03;99649.59;;;16.57
61390;BMP280;47260;48.274;19.814;2023-05-02T20:38:35;99661.94;;;16.45
61390;BMP280;47260;48.274;19.814;2023-05-02T20:40:11;99633.34;;;16.44
61390;BMP280;47260;48.274;19.814;2023-05-02T20:41:43;99632.66;;;16.64
61390;BMP280;47260;48.274;19.814;2023-05-02T20:43:15;99605.66;;;16.71
61390;BMP280;47260;48.274;19.814;2023-05-02T20:44:51;99605.78;;;16.86
61390;BMP280;47260;48.274;19.814;2023-05-02T20:46:23;99600.22;;;16.71
61390;BMP280;47260;48.274;19.814;2023-05-02T20:47:56;99603.09;;;16.53
61390;BMP280;47260;48.274;19.814;2023-05-02T20:49:29;99607.53;;;16.43
61390;BMP280;47260;48.274;19.814;2023-05-02T20:51:00;99614.00;;;16.40
61390;BMP280;47260;48.274;19.814;2023-05-02T20:52:32;99624.84;;;16.40
61390;BMP280;47260;48.274;19.814;2023-05-02T20:54:04;99614.00;;;16.40
61390;BMP280;47260;48.274;19.814;2023-05-02T20:55:35;99625.53;;;16.40
61390;BMP280;47260;48.274;19.814;2023-05-02T20:57:07;99625.78;;;16.42
61390;BMP280;47260;48.274;19.814;2023-05-02T20:58:38;99630.25;;;16.40
61390;BMP280;47260;48.274;19.814;2023-05-02T21:00:10;99635.47;;;16.38
61390;BMP280;47260;48.274;19.814;2023-05-02T21:01:42;99633.81;;;16.35
61390;BMP280;47260;48.274;19.814;2023-05-02T21:03:15;99638.81;;;16.31
61390;BMP280;47260;48.274;19.814;2023-05-02T21:04:48;99638.81;;;16.31
61390;BMP280;47260;48.274;19.814;2023-05-02T21:06:20;99628.31;;;16.27
61390;BMP280;47260;48.274;19.814;2023-05-02T21:07:51;99636.84;;;16.31
61390;BMP280;47260;48.274;19.814;2023-05-02T21:09:23;99638.22;;;16.24
61390;BMP280;47260;48.274;19.814;2023-05-02T21:10:55;99642.59;;;16.14
61390;BMP280;47260;48.274;19.814;2023-05-02T21:12:26;99641.13;;;16.13
61390;BMP280;47260;48.274;19.814;2023-05-02T21:13:58;99638.94;;;16.12
61390;BMP280;47260;48.274;19.814;2023-05-02T21:15:33;99634.25;;;16.12
61390;BMP280;47260;48.274;19.814;2023-05-02T21:17:04;99647.81;;;16.12
61390;BMP280;47260;48.274;19.814;2023-05-02T21:18:37;99654.50;;;16.11
61390;BMP280;47260;48.274;19.814;2023-05-02T21:20:09;99670.00;;;16.11
61390;BMP280;47260;48.274;19.814;2023-05-02T21:21:41;99677.00;;;16.06
61390;BMP280;47260;48.274;19.814;2023-05-02T21:23:12;99674.16;;;15.99
61390;BMP280;47260;48.274;19.814;2023-05-02T21:24:44;99665.09;;;15.96
61390;BMP280;47260;48.274;19.814;2023-05-02T21:26:17;99654.06;;;15.94
61390;BMP280;47260;48.274;19.814;2023-05-02T21:27:49;99642.81;;;15.90
61390;BMP280;47260;48.274;19.814;2023-05-02T21:29:20;99630.59;;;15.71
61390;BMP280;47260;48.274;19.814;2023-05-02T21:30:52;99629.44;;;15.53
61390;BMP280;47260;48.274;19.814;2023-05-02T21:32:23;99624.22;;;15.42
61390;BMP280;47260;48.274;19.814;2023-05-02T21:33:57;99637.56;;;15.40
61390;BMP280;47260;48.274;19.814;2023-05-02T21:35:28;99644.13;;;15.45
61390;BMP280;47260;48.274;19.814;2023-05-02T21:37:03;99641.09;;;15.48
61390;BMP280;47260;48.274;19.814;2023-05-02T21:38:35;99632.34;;;15.55
61390;BMP280;47260;48.274;19.814;2023-05-02T21:40:07;99627.91;;;15.58
61390;BMP280;47260;48.274;19.814;2023-05-02T21:41:39;99620.94;;;15.62
61390;BMP280;47260;48.274;19.814;2023-05-02T21:43:10;99626.38;;;15.62
61390;BMP280;47260;48.274;19.814;2023-05-02T21:44:42;99628.00;;;15.65
61390;BMP280;47260;48.274;19.814;2023-05-02T21:46:14;99644.84;;;15.58
61390;BMP280;47260;48.274;19.814;2023-05-02T21:47:45;99648.84;;;15.57
61390;BMP280;47260;48.274;19.814;2023-05-02T21:49:18;99640.00;;;15.57
61390;BMP280;47260;48.274;19.814;2023-05-02T21:50:50;99634.56;;;15.57
61390;BMP280;47260;48.274;19.814;2023-05-02T21:52:21;99648.28;;;15.59
61390;BMP280;47260;48.274;19.814;2023-05-02T21:53:52;99644.25;;;15.52
61390;BMP280;47260;48.274;19.814;2023-05-02T21:55:24;99636.31;;;15.54
61390;BMP280;47260;48.274;19.814;2023-05-02T21:56:56;99634.03;;;15.58
61390;BMP280;47260;48.274;19.814;2023-05-02T21:58:27;99629.91;;;15.57
61390;BMP280;47260;48.274;19.814;2023-05-02T21:59:59;99624.25;;;15.55
61390;BMP280;47260;48.274;19.814;2023-05-02T22:01:30;99631.22;;;15.51
61390;BMP280;47260;48.274;19.814;2023-05-02T22:03:02;99624.88;;;15.35
61390;BMP280;47260;48.274;19.814;2023-05-02T22:04:38;99619.88;;;15.39
61390;BMP280;47260;48.274;19.814;2023-05-02T22:06:09;99617.97;;;15.34
61390;BMP280;47260;48.274;19.814;2023-05-02T22:07:40;99613.50;;;15.37
61390;BMP280;47260;48.274;19.814;2023-05-02T22:09:11;99616.00;;;15.35
61390;BMP280;47260;48.274;19.814;2023-05-02T22:10:43;99624.88;;;15.35
61390;BMP280;47260;48.274;19.814;2023-05-02T22:12:14;99626.00;;;15.40
61390;BMP280;47260;48.274;19.814;2023-05-02T22:13:46;99641.28;;;15.37
61390;BMP280;47260;48.274;19.814;2023-05-02T22:15:17;99644.94;;;15.40
61390;BMP280;47260;48.274;19.814;2023-05-02T22:16:49;99644.31;;;15.34
61390;BMP280;47260;48.274;19.814;2023-05-02T22:18:21;99656.16;;;15.31
61390;BMP280;47260;48.274;19.814;2023-05-02T22:19:53;99661.69;;;15.25
61390;BMP280;47260;48.274;19.814;2023-05-02T22:21:25;99652.81;;;15.25
61390;BMP280;47260;48.274;19.814;2023-05-02T22:22:58;99657.50;;;15.24
61390;BMP280;47260;48.274;19.814;2023-05-02T22:24:29;99660.72;;;15.23
61390;BMP280;47260;48.274;19.814;2023-05-02T22:26:01;99669.66;;;15.18
61390;BMP280;47260;48.274;19.814;2023-05-02T22:27:32;99665.78;;;15.13
61390;BMP280;47260;48.274;19.814;2023-05-02T22:29:03;99664.53;;;15.14
61390;BMP280;47260;48.274;19.814;2023-05-02T22:30:34;99675.63;;;15.11
61390;BMP280;47260;48.274;19.814;2023-05-02T22:32:05;99668.66;;;15.02
61390;BMP280;47260;48.274;19.814;2023-05-02T22:33:36;99681.72;;;14.98
61390;BMP280;47260;48.274;19.814;2023-05-02T22:35:08;99676.84;;;14.96
61390;BMP280;47260;48.274;19.814;2023-05-02T22:36:40;99690.13;;;14.94
61390;BMP280;47260;48.274;19.814;2023-05-02T22:38:13;99688.88;;;14.95
61390;BMP280;47260;48.274;19.814;2023-05-02T22:39:45;99692.84;;;14.94
61390;BMP280;47260;48.274;19.814;2023-05-02T22:41:17;99690.13;;;14.94
61390;BMP280;47260;48.274;19.814;2023-05-02T22:42:48;99693.06;;;14.96
61390;BMP280;47260;48.274;19.814;2023-05-02T22:44:20;99686.56;;;15.05
61390;BMP280;47260;48.274;19.814;2023-05-02T22:45:51;99689.25;;;15.05
61390;BMP280;47260;48.274;19.814;2023-05-02T22:47:23;99687.72;;;15.10
61390;BMP280;47260;48.274;19.814;2023-05-02T22:48:55;99684.47;;;15.11
61390;BMP280;47260;48.274;19.814;2023-05-02T22:50:29;99686.88;;;15.15
61390;BMP280;47260;48.274;19.814;2023-05-02T22:52:01;99685.44;;;15.14
61390;BMP280;47260;48.274;19.814;2023-05-02T22:53:33;99676.38;;;15.11
61390;BMP280;47260;48.274;19.814;2023-05-02T22:55:05;99665.56;;;15.11
61390;BMP280;47260;48.274;19.814;2023-05-02T22:56:38;99669.97;;;15.14
61390;BMP280;47260;48.274;19.814;2023-05-02T22:58:09;99671.28;;;15.08
61390;BMP280;47260;48.274;19.814;2023-05-02T22:59:41;99674.81;;;15.02
61390;BMP280;47260;48.274;19.814;2023-05-02T23:01:12;99669.88;;;15.01
61390;BMP280;47260;48.274;19.814;2023-05-02T23:02:43;99680.28;;;14.97
61390;BMP280;47260;48.274;19.814;2023-05-02T23:04:14;99676.84;;;14.96
61390;BMP280;47260;48.274;19.814;2023-05-02T23:05:47;99675.38;;;14.95
61390;BMP280;47260;48.274;19.814;2023-05-02T23:07:19;99674.22;;;14.91
61390;BMP280;47260;48.274;19.814;2023-05-02T23:08:49;99675.06;;;14.99
61390;BMP280;47260;48.274;19.814;2023-05-02T23:10:21;99669.25;;;14.95
61390;BMP280;47260;48.274;19.814;2023-05-02T23:11:52;99672.66;;;14.95
61390;BMP280;47260;48.274;19.814;2023-05-02T23:13:24;99660.88;;;14.93
61390;BMP280;47260;48.274;19.814;2023-05-02T23:14:55;99670.78;;;14.90
61390;BMP280;47260;48.274;19.814;2023-05-02T23:16:26;99657.34;;;14.85
61390;BMP280;47260;48.274;19.814;2023-05-02T23:17:57;99665.47;;;14.85
61390;BMP280;47260;48.274;19.814;2023-05-02T23:19:29;99661.81;;;14.82
61390;BMP280;47260;48.274;19.814;2023-05-02T23:21:03;99661.28;;;14.84
61390;BMP280;47260;48.274;19.814;2023-05-02T23:22:34;99668.66;;;14.83
61390;BMP280;47260;48.274;19.814;2023-05-02T23:24:05;99665.72;;;14.81
61390;BMP280;47260;48.274;19.814;2023-05-02T23:25:37;99669.75;;;14.75
61390;BMP280;47260;48.274;19.814;2023-05-02T23:27:08;99660.19;;;14.74
61390;BMP280;47260;48.274;19.814;2023-05-02T23:28:40;99649.16;;;14.72
61390;BMP280;47260;48.274;19.814;2023-05-02T23:30:11;99653.84;;;14.71
61390;BMP280;47260;48.274;19.814;2023-05-02T23:31:43;99638.34;;;14.72
61390;BMP280;47260;48.274;19.814;2023-05-02T23:33:13;99638.72;;;14.63
61390;BMP280;47260;48.274;19.814;2023-05-02T23:34:45;99636.31;;;14.59
61390;BMP280;47260;48.274;19.814;2023-05-02T23:36:18;99639.41;;;14.63
61390;BMP280;47260;48.274;19.814;2023-05-02T23:37:49;99636.31;;;14.59
61390;BMP280;47260;48.274;19.814;2023-05-02T23:39:20;99638.06;;;14.57
61390;BMP280;47260;48.274;19.814;2023-05-02T23:40:52;99638.28;;;14.59
61390;BMP280;47260;48.274;19.814;2023-05-02T23:42:23;99635.31;;;14.62
61390;BMP280;47260;48.274;19.814;2023-05-02T23:43:55;99633.81;;;14.61
61390;BMP280;47260;48.274;19.814;2023-05-02T23:45:26;99631.63;;;14.60
61390;BMP280;47260;48.274;19.814;2023-05-02T23:46:58;99634.56;;;14.62
61390;BMP280;47260;48.274;19.814;2023-05-02T23:48:29;99632.13;;;14.58
61390;BMP280;47260;48.274;19.814;2023-05-02T23:50:01;99636.81;;;14.58
61390;BMP280;47260;48.274;19.814;2023-05-02T23:51:34;99647.91;;;14.54
61390;BMP280;47260;48.274;19.814;2023-05-02T23:53:06;99651.34;;;14.55
61390;BMP280;47260;48.274;19.814;2023-05-02T23:54:38;99644.47;;;14.54
61390;BMP280;47260;48.274;19.814;2023-05-02T23:56:10;99644.06;;;14.50
61390;BMP280;47260;48.274;19.814;2023-05-02T23:57:41;99642.56;;;14.49
61390;BMP280;47260;48.274;19.814;2023-05-02T23:59:13;99649.47;;;14.50
